sensor_id;sensor_type;location;lat;lon;timestamp;temperature;humidity
3156;DHT22;1588;50.892;7.082;2023-03-29T00:00:33;5.50;99.90
3156;DHT22;1588;50.892;7.082;2023-03-29T00:05:38;5.50;99.90
3156;DHT22;1588;50.892;7.082;2023-03-29T00:10:42;5.50;99.90
3156;DHT22;1588;50.892;7.082;2023-03-29T00:15:44;5.50;99.90
3156;DHT22;1588;50.892;7.082;2023-03-29T00:20:53;5.50;99.90
3156;DHT22;1588;50.892;7.082;2023-03-29T00:25:57;5.40;99.90
3156;DHT22;1588;50.892;7.082;2023-03-29T00:31:04;5.50;99.90
3156;DHT22;1588;50.892;7.082;2023-03-29T00:36:08;5.50;99.90
3156;DHT22;1588;50.892;7.082;2023-03-29T00:41:13;5.50;99.90
3156;DHT22;1588;50.892;7.082;2023-03-29T00:46:16;5.60;99.90
3156;DHT22;1588;50.892;7.082;2023-03-29T00:51:20;5.50;99.90
3156;DHT22;1588;50.892;7.082;2023-03-29T00:56:28;5.50;99.90
3156;DHT22;1588;50.892;7.082;2023-03-29T01:01:35;5.50;99.90
3156;DHT22;1588;50.892;7.082;2023-03-29T01:06:42;5.60;99.90
3156;DHT22;1588;50.892;7.082;2023-03-29T01:11:52;5.70;99.90
3156;DHT22;1588;50.892;7.082;2023-03-29T01:16:55;5.60;99.90
3156;DHT22;1588;50.892;7.082;2023-03-29T01:22:02;5.60;99.90
3156;DHT22;1588;50.892;7.082;2023-03-29T01:27:13;5.60;99.90
3156;DHT22;1588;50.892;7.082;2023-03-29T01:32:22;5.60;99.90
3156;DHT22;1588;50.892;7.082;2023-03-29T01:37:29;5.70;99.90
3156;DHT22;1588;50.892;7.082;2023-03-29T01:42:41;5.80;99.90
3156;DHT22;1588;50.892;7.082;2023-03-29T01:47:54;5.80;99.90
3156;DHT22;1588;50.892;7.082;2023-03-29T01:53:02;5.70;99.90
3156;DHT22;1588;50.892;7.082;2023-03-29T01:58:07;5.80;99.90
3156;DHT22;1588;50.892;7.082;2023-03-29T02:03:12;5.80;99.90
3156;DHT22;1588;50.892;7.082;2023-03-29T02:08:17;5.80;99.90
3156;DHT22;1588;50.892;7.082;2023-03-29T02:13:21;5.80;99.90
3156;DHT22;1588;50.892;7.082;2023-03-29T02:18:25;5.80;99.90
3156;DHT22;1588;50.892;7.082;2023-03-29T02:23:30;5.80;99.90
3156;DHT22;1588;50.892;7.082;2023-03-29T02:28:37;5.80;99.90
3156;DHT22;1588;50.892;7.082;2023-03-29T02:33:44;5.90;99.90
3156;DHT22;1588;50.892;7.082;2023-03-29T02:38:48;5.90;99.90
3156;DHT22;1588;50.892;7.082;2023-03-29T02:43:51;6.00;99.90
3156;DHT22;1588;50.892;7.082;2023-03-29T02:48:57;6.00;99.90
3156;DHT22;1588;50.892;7.082;2023-03-29T02:54:02;6.10;99.90
3156;DHT22;1588;50.892;7.082;2023-03-29T02:59:05;6.10;99.90
3156;DHT22;1588;50.892;7.082;2023-03-29T03:04:09;6.20;99.90
3156;DHT22;1588;50.892;7.082;2023-03-29T03:09:14;6.10;99.90
3156;DHT22;1588;50.892;7.082;2023-03-29T03:14:17;6.20;99.90
3156;DHT22;1588;50.892;7.082;2023-03-29T03:19:24;6.20;99.90
3156;DHT22;1588;50.892;7.082;2023-03-29T03:24:26;6.30;99.90
3156;DHT22;1588;50.892;7.082;2023-03-29T03:29:29;6.30;99.90
3156;DHT22;1588;50.892;7.082;2023-03-29T03:34:32;6.30;99.90
3156;DHT22;1588;50.892;7.082;2023-03-29T03:39:35;6.30;99.90
3156;DHT22;1588;50.892;7.082;2023-03-29T03:44:38;6.30;99.90
3156;DHT22;1588;50.892;7.082;2023-03-29T03:49:41;6.30;99.90
3156;DHT22;1588;50.892;7.082;2023-03-29T03:54:44;6.30;99.90
3156;DHT22;1588;50.892;7.082;2023-03-29T03:59:48;6.30;99.90
3156;DHT22;1588;50.892;7.082;2023-03-29T04:04:51;6.30;99.90
3156;DHT22;1588;50.892;7.082;2023-03-29T04:09:54;6.30;99.90
3156;DHT22;1588;50.892;7.082;2023-03-29T04:14:57;6.30;99.90
3156;DHT22;1588;50.892;7.082;2023-03-29T04:20:01;6.30;99.90
3156;DHT22;1588;50.892;7.082;2023-03-29T04:25:10;6.40;99.90
3156;DHT22;1588;50.892;7.082;2023-03-29T04:30:13;6.50;99.90
3156;DHT22;1588;50.892;7.082;2023-03-29T04:35:17;6.50;99.90
3156;DHT22;1588;50.892;7.082;2023-03-29T04:40:19;6.50;99.90
3156;DHT22;1588;50.892;7.082;2023-03-29T04:45:22;6.60;99.90
3156;DHT22;1588;50.892;7.082;2023-03-29T04:50:26;6.60;99.90
3156;DHT22;1588;50.892;7.082;2023-03-29T04:55:29;6.60;99.90
3156;DHT22;1588;50.892;7.082;2023-03-29T05:00:31;6.60;99.90
3156;DHT22;1588;50.892;7.082;2023-03-29T05:05:35;6.70;99.90
3156;DHT22;1588;50.892;7.082;2023-03-29T05:10:40;6.60;99.90
3156;DHT22;1588;50.892;7.082;2023-03-29T05:15:43;6.60;99.90
3156;DHT22;1588;50.892;7.082;2023-03-29T05:20:49;6.60;99.90
3156;DHT22;1588;50.892;7.082;2023-03-29T05:25:53;6.60;99.90
3156;DHT22;1588;50.892;7.082;2023-03-29T05:30:59;6.70;99.90
3156;DHT22;1588;50.892;7.082;2023-03-29T05:36:05;6.80;99.90
3156;DHT22;1588;50.892;7.082;2023-03-29T05:41:07;6.80;99.90
3156;DHT22;1588;50.892;7.082;2023-03-29T05:46:13;6.90;99.90
3156;DHT22;1588;50.892;7.082;2023-03-29T05:51:17;7.00;99.90
3156;DHT22;1588;50.892;7.082;2023-03-29T05:56:24;7.10;99.90
3156;DHT22;1588;50.892;7.082;2023-03-29T06:01:26;7.20;99.90
3156;DHT22;1588;50.892;7.082;2023-03-29T06:06:31;7.20;99.90
3156;DHT22;1588;50.892;7.082;2023-03-29T06:11:33;7.30;99.90
3156;DHT22;1588;50.892;7.082;2023-03-29T06:16:36;7.30;99.90
3156;DHT22;1588;50.892;7.082;2023-03-29T06:21:40;7.40;99.90
3156;DHT22;1588;50.892;7.082;2023-03-29T06:26:42;7.40;99.90
3156;DHT22;1588;50.892;7.082;2023-03-29T06:31:45;7.50;99.90
3156;DHT22;1588;50.892;7.082;2023-03-29T06:36:49;7.60;99.90
3156;DHT22;1588;50.892;7.082;2023-03-29T06:41:52;7.70;99.90
3156;DHT22;1588;50.892;7.082;2023-03-29T06:46:55;7.70;99.90
3156;DHT22;1588;50.892;7.082;2023-03-29T06:51:59;7.70;99.90
3156;DHT22;1588;50.892;7.082;2023-03-29T06:57:02;7.70;99.90
3156;DHT22;1588;50.892;7.082;2023-03-29T07:02:05;8.00;99.90
3156;DHT22;1588;50.892;7.082;2023-03-29T07:07:10;8.20;99.90
3156;DHT22;1588;50.892;7.082;2023-03-29T07:12:20;8.30;99.90
3156;DHT22;1588;50.892;7.082;2023-03-29T07:17:23;8.30;99.90
3156;DHT22;1588;50.892;7.082;2023-03-29T07:22:27;8.30;99.90
3156;DHT22;1588;50.892;7.082;2023-03-29T07:27:33;8.40;99.90
3156;DHT22;1588;50.892;7.082;2023-03-29T07:32:35;8.50;99.90
3156;DHT22;1588;50.892;7.082;2023-03-29T07:37:40;8.60;99.90
3156;DHT22;1588;50.892;7.082;2023-03-29T07:42:45;8.50;99.90
3156;DHT22;1588;50.892;7.082;2023-03-29T07:47:47;8.60;99.90
3156;DHT22;1588;50.892;7.082;2023-03-29T07:52:51;8.70;99.90
3156;DHT22;1588;50.892;7.082;2023-03-29T07:57:55;9.00;99.90
3156;DHT22;1588;50.892;7.082;2023-03-29T08:02:57;9.40;99.90
3156;DHT22;1588;50.892;7.082;2023-03-29T08:08:02;9.50;99.90
3156;DHT22;1588;50.892;7.082;2023-03-29T08:13:08;9.70;99.90
3156;DHT22;1588;50.892;7.082;2023-03-29T08:18:10;10.40;99.90
3156;DHT22;1588;50.892;7.082;2023-03-29T08:23:14;10.90;99.90
3156;DHT22;1588;50.892;7.082;2023-03-29T08:28:16;10.90;99.90
3156;DHT22;1588;50.892;7.082;2023-03-29T08:33:20;11.50;99.90
3156;DHT22;1588;50.892;7.082;2023-03-29T08:38:24;11.70;99.90
3156;DHT22;1588;50.892;7.082;2023-03-29T08:43:45;11.90;99.90
3156;DHT22;1588;50.892;7.082;2023-03-29T08:48:53;11.50;99.90
3156;DHT22;1588;50.892;7.082;2023-03-29T08:54:00;11.10;99.90
3156;DHT22;1588;50.892;7.082;2023-03-29T08:59:05;11.00;99.90
3156;DHT22;1588;50.892;7.082;2023-03-29T09:04:14;10.80;99.90
3156;DHT22;1588;50.892;7.082;2023-03-29T09:09:20;10.80;99.90
3156;DHT22;1588;50.892;7.082;2023-03-29T09:14:42;10.80;99.90
3156;DHT22;1588;50.892;7.082;2023-03-29T09:19:52;10.70;99.90
3156;DHT22;1588;50.892;7.082;2023-03-29T09:25:05;10.80;99.90
3156;DHT22;1588;50.892;7.082;2023-03-29T09:30:16;10.90;99.90
3156;DHT22;1588;50.892;7.082;2023-03-29T09:35:29;11.00;99.90
3156;DHT22;1588;50.892;7.082;2023-03-29T09:40:38;11.10;99.90
3156;DHT22;1588;50.892;7.082;2023-03-29T09:45:49;11.10;99.90
3156;DHT22;1588;50.892;7.082;2023-03-29T09:50:53;11.00;99.90
3156;DHT22;1588;50.892;7.082;2023-03-29T09:55:59;11.00;99.90
3156;DHT22;1588;50.892;7.082;2023-03-29T10:01:06;11.10;99.90
3156;DHT22;1588;50.892;7.082;2023-03-29T10:06:11;11.30;99.90
3156;DHT22;1588;50.892;7.082;2023-03-29T10:11:20;11.70;99.90
3156;DHT22;1588;50.892;7.082;2023-03-29T10:16:27;11.80;99.90
3156;DHT22;1588;50.892;7.082;2023-03-29T10:21:30;12.00;99.90
3156;DHT22;1588;50.892;7.082;2023-03-29T10:26:36;12.20;99.90
3156;DHT22;1588;50.892;7.082;2023-03-29T10:31:39;12.20;99.90
3156;DHT22;1588;50.892;7.082;2023-03-29T10:36:44;12.20;99.90
3156;DHT22;1588;50.892;7.082;2023-03-29T10:41:52;12.30;99.90
3156;DHT22;1588;50.892;7.082;2023-03-29T10:46:54;12.80;99.90
3156;DHT22;1588;50.892;7.082;2023-03-29T10:51:57;13.60;99.90
3156;DHT22;1588;50.892;7.082;2023-03-29T10:57:03;14.10;99.90
3156;DHT22;1588;50.892;7.082;2023-03-29T11:07:48;14.50;99.90
3156;DHT22;1588;50.892;7.082;2023-03-29T11:12:58;15.00;99.90
3156;DHT22;1588;50.892;7.082;2023-03-29T11:18:26;15.50;99.90
3156;DHT22;1588;50.892;7.082;2023-03-29T11:23:39;15.50;99.90
3156;DHT22;1588;50.892;7.082;2023-03-29T11:28:51;15.40;99.90
3156;DHT22;1588;50.892;7.082;2023-03-29T11:34:02;15.20;99.90
3156;DHT22;1588;50.892;7.082;2023-03-29T11:39:14;15.20;99.90
3156;DHT22;1588;50.892;7.082;2023-03-29T11:44:28;15.00;99.90
3156;DHT22;1588;50.892;7.082;2023-03-29T11:49:37;14.90;99.90
3156;DHT22;1588;50.892;7.082;2023-03-29T11:54:44;14.80;99.90
3156;DHT22;1588;50.892;7.082;2023-03-29T11:59:54;15.10;99.90
3156;DHT22;1588;50.892;7.082;2023-03-29T12:05:02;15.20;99.90
3156;DHT22;1588;50.892;7.082;2023-03-29T12:10:15;15.60;99.90
3156;DHT22;1588;50.892;7.082;2023-03-29T12:15:21;15.70;99.90
3156;DHT22;1588;50.892;7.082;2023-03-29T12:20:26;15.90;99.90
3156;DHT22;1588;50.892;7.082;2023-03-29T12:25:40;16.10;99.90
3156;DHT22;1588;50.892;7.082;2023-03-29T12:30:58;16.10;99.90
3156;DHT22;1588;50.892;7.082;2023-03-29T12:36:17;16.20;99.90
3156;DHT22;1588;50.892;7.082;2023-03-29T12:41:24;16.20;99.90
3156;DHT22;1588;50.892;7.082;2023-03-29T12:46:32;16.80;99.90
3156;DHT22;1588;50.892;7.082;2023-03-29T12:51:35;17.40;99.90
3156;DHT22;1588;50.892;7.082;2023-03-29T12:56:54;17.20;99.90
3156;DHT22;1588;50.892;7.082;2023-03-29T13:02:00;17.60;99.90
3156;DHT22;1588;50.892;7.082;2023-03-29T13:07:11;17.70;99.90
3156;DHT22;1588;50.892;7.082;2023-03-29T13:12:21;18.00;99.90
3156;DHT22;1588;50.892;7.082;2023-03-29T13:17:33;18.00;99.90
3156;DHT22;1588;50.892;7.082;2023-03-29T13:22:45;18.40;99.90
3156;DHT22;1588;50.892;7.082;2023-03-29T13:27:51;18.20;99.90
3156;DHT22;1588;50.892;7.082;2023-03-29T13:38:29;17.70;99.90
3156;DHT22;1588;50.892;7.082;2023-03-29T13:43:47;17.60;99.90
3156;DHT22;1588;50.892;7.082;2023-03-29T13:49:04;17.70;99.90
3156;DHT22;1588;50.892;7.082;2023-03-29T13:54:17;17.50;99.90
3156;DHT22;1588;50.892;7.082;2023-03-29T13:59:32;17.40;99.90
3156;DHT22;1588;50.892;7.082;2023-03-29T14:04:40;17.30;99.90
3156;DHT22;1588;50.892;7.082;2023-03-29T14:09:48;17.30;99.90
3156;DHT22;1588;50.892;7.082;2023-03-29T14:14:52;17.20;99.90
3156;DHT22;1588;50.892;7.082;2023-03-29T14:19:58;17.30;99.90
3156;DHT22;1588;50.892;7.082;2023-03-29T14:25:05;17.40;99.90
3156;DHT22;1588;50.892;7.082;2023-03-29T14:30:30;17.40;99.90
3156;DHT22;1588;50.892;7.082;2023-03-29T14:35:33;17.30;99.90
3156;DHT22;1588;50.892;7.082;2023-03-29T14:40:39;17.10;99.90
3156;DHT22;1588;50.892;7.082;2023-03-29T14:45:45;17.20;99.90
3156;DHT22;1588;50.892;7.082;2023-03-29T14:50:49;17.10;99.90
3156;DHT22;1588;50.892;7.082;2023-03-29T14:55:52;17.20;99.90
3156;DHT22;1588;50.892;7.082;2023-03-29T15:00:55;17.30;99.90
3156;DHT22;1588;50.892;7.082;2023-03-29T15:06:03;17.30;99.90
3156;DHT22;1588;50.892;7.082;2023-03-29T15:11:11;17.30;99.90
3156;DHT22;1588;50.892;7.082;2023-03-29T15:16:18;17.10;99.90
3156;DHT22;1588;50.892;7.082;2023-03-29T15:21:28;16.90;99.90
3156;DHT22;1588;50.892;7.082;2023-03-29T15:26:34;16.80;99.90
3156;DHT22;1588;50.892;7.082;2023-03-29T15:31:38;16.70;99.90
3156;DHT22;1588;50.892;7.082;2023-03-29T15:36:44;16.50;99.90
3156;DHT22;1588;50.892;7.082;2023-03-29T15:41:50;16.40;99.90
3156;DHT22;1588;50.892;7.082;2023-03-29T15:46:54;16.30;99.90
3156;DHT22;1588;50.892;7.082;2023-03-29T15:51:59;16.40;99.90
3156;DHT22;1588;50.892;7.082;2023-03-29T15:57:04;16.40;99.90
3156;DHT22;1588;50.892;7.082;2023-03-29T16:02:13;16.20;99.90
3156;DHT22;1588;50.892;7.082;2023-03-29T16:07:21;16.10;99.90
3156;DHT22;1588;50.892;7.082;2023-03-29T16:12:23;16.10;99.90
3156;DHT22;1588;50.892;7.082;2023-03-29T16:17:29;16.00;99.90
3156;DHT22;1588;50.892;7.082;2023-03-29T16:22:34;15.90;99.90
3156;DHT22;1588;50.892;7.082;2023-03-29T16:27:36;15.90;99.90
3156;DHT22;1588;50.892;7.082;2023-03-29T16:32:40;15.90;99.90
3156;DHT22;1588;50.892;7.082;2023-03-29T16:37:44;16.00;99.90
3156;DHT22;1588;50.892;7.082;2023-03-29T16:42:47;16.00;99.90
3156;DHT22;1588;50.892;7.082;2023-03-29T16:47:50;16.00;99.90
3156;DHT22;1588;50.892;7.082;2023-03-29T16:52:54;16.10;99.90
3156;DHT22;1588;50.892;7.082;2023-03-29T16:57:56;16.10;99.90
3156;DHT22;1588;50.892;7.082;2023-03-29T17:02:59;16.10;99.90
3156;DHT22;1588;50.892;7.082;2023-03-29T17:08:03;16.10;99.90
3156;DHT22;1588;50.892;7.082;2023-03-29T17:13:06;16.00;99.90
3156;DHT22;1588;50.892;7.082;2023-03-29T17:18:08;15.90;99.90
3156;DHT22;1588;50.892;7.082;2023-03-29T17:23:12;15.80;99.90
3156;DHT22;1588;50.892;7.082;2023-03-29T17:28:15;15.70;99.90
3156;DHT22;1588;50.892;7.082;2023-03-29T17:33:18;15.60;99.90
3156;DHT22;1588;50.892;7.082;2023-03-29T17:38:23;15.50;99.90
3156;DHT22;1588;50.892;7.082;2023-03-29T17:43:28;15.40;99.90
3156;DHT22;1588;50.892;7.082;2023-03-29T17:48:31;15.30;99.90
3156;DHT22;1588;50.892;7.082;2023-03-29T17:53:35;15.20;99.90
3156;DHT22;1588;50.892;7.082;2023-03-29T17:58:40;15.10;99.90
3156;DHT22;1588;50.892;7.082;2023-03-29T18:03:42;15.10;99.90
3156;DHT22;1588;50.892;7.082;2023-03-29T18:08:46;15.00;99.90
3156;DHT22;1588;50.892;7.082;2023-03-29T18:13:49;14.80;99.90
3156;DHT22;1588;50.892;7.082;2023-03-29T18:18:52;14.70;99.90
3156;DHT22;1588;50.892;7.082;2023-03-29T18:23:59;14.70;99.90
3156;DHT22;1588;50.892;7.082;2023-03-29T18:29:02;14.60;99.90
3156;DHT22;1588;50.892;7.082;2023-03-29T18:34:04;14.50;99.90
3156;DHT22;1588;50.892;7.082;2023-03-29T18:39:09;14.40;99.90
3156;DHT22;1588;50.892;7.082;2023-03-29T18:44:13;14.30;99.90
3156;DHT22;1588;50.892;7.082;2023-03-29T18:49:17;14.20;99.90
3156;DHT22;1588;50.892;7.082;2023-03-29T18:54:21;14.00;99.90
3156;DHT22;1588;50.892;7.082;2023-03-29T18:59:24;14.00;99.90
3156;DHT22;1588;50.892;7.082;2023-03-29T19:04:26;14.00;99.90
3156;DHT22;1588;50.892;7.082;2023-03-29T19:09:31;13.80;99.90
3156;DHT22;1588;50.892;7.082;2023-03-29T19:14:36;13.80;99.90
3156;DHT22;1588;50.892;7.082;2023-03-29T19:19:39;13.90;99.90
3156;DHT22;1588;50.892;7.082;2023-03-29T19:24:43;14.00;99.90
3156;DHT22;1588;50.892;7.082;2023-03-29T19:29:46;14.00;99.90
3156;DHT22;1588;50.892;7.082;2023-03-29T19:34:50;14.00;99.90
3156;DHT22;1588;50.892;7.082;2023-03-29T19:39:53;13.90;99.90
3156;DHT22;1588;50.892;7.082;2023-03-29T19:44:59;13.80;99.90
3156;DHT22;1588;50.892;7.082;2023-03-29T19:50:02;13.70;99.90
3156;DHT22;1588;50.892;7.082;2023-03-29T19:55:07;13.90;99.90
3156;DHT22;1588;50.892;7.082;2023-03-29T20:00:12;13.90;99.90
3156;DHT22;1588;50.892;7.082;2023-03-29T20:05:15;13.80;99.90
3156;DHT22;1588;50.892;7.082;2023-03-29T20:10:19;13.70;99.90
3156;DHT22;1588;50.892;7.082;2023-03-29T20:15:21;13.50;99.90
3156;DHT22;1588;50.892;7.082;2023-03-29T20:20:27;13.50;99.90
3156;DHT22;1588;50.892;7.082;2023-03-29T20:25:33;13.40;99.90
3156;DHT22;1588;50.892;7.082;2023-03-29T20:30:36;13.20;99.90
3156;DHT22;1588;50.892;7.082;2023-03-29T20:35:38;13.10;99.90
3156;DHT22;1588;50.892;7.082;2023-03-29T20:40:42;13.10;99.90
3156;DHT22;1588;50.892;7.082;2023-03-29T20:45:45;13.00;99.90
3156;DHT22;1588;50.892;7.082;2023-03-29T20:50:50;13.10;99.90
3156;DHT22;1588;50.892;7.082;2023-03-29T20:55:54;13.30;99.90
3156;DHT22;1588;50.892;7.082;2023-03-29T21:00:56;13.20;99.90
3156;DHT22;1588;50.892;7.082;2023-03-29T21:05:59;13.10;99.90
3156;DHT22;1588;50.892;7.082;2023-03-29T21:11:03;13.10;99.90
3156;DHT22;1588;50.892;7.082;2023-03-29T21:16:08;12.90;99.90
3156;DHT22;1588;50.892;7.082;2023-03-29T21:21:11;12.80;99.90
3156;DHT22;1588;50.892;7.082;2023-03-29T21:26:17;12.80;99.90
3156;DHT22;1588;50.892;7.082;2023-03-29T21:31:20;12.70;99.90
3156;DHT22;1588;50.892;7.082;2023-03-29T21:36:23;12.50;99.90
3156;DHT22;1588;50.892;7.082;2023-03-29T21:41:28;12.40;99.90
3156;DHT22;1588;50.892;7.082;2023-03-29T21:46:30;12.40;99.90
3156;DHT22;1588;50.892;7.082;2023-03-29T21:51:32;12.40;99.90
3156;DHT22;1588;50.892;7.082;2023-03-29T21:56:36;12.30;99.90
3156;DHT22;1588;50.892;7.082;2023-03-29T22:01:38;12.30;99.90
3156;DHT22;1588;50.892;7.082;2023-03-29T22:06:41;12.40;99.90
3156;DHT22;1588;50.892;7.082;2023-03-29T22:11:45;12.30;99.90
3156;DHT22;1588;50.892;7.082;2023-03-29T22:16:48;12.30;99.90
3156;DHT22;1588;50.892;7.082;2023-03-29T22:21:50;12.20;99.90
3156;DHT22;1588;50.892;7.082;2023-03-29T22:26:57;12.10;99.90
3156;DHT22;1588;50.892;7.082;2023-03-29T22:31:59;11.90;99.90
3156;DHT22;1588;50.892;7.082;2023-03-29T22:37:02;11.70;99.90
3156;DHT22;1588;50.892;7.082;2023-03-29T22:42:10;11.60;99.90
3156;DHT22;1588;50.892;7.082;2023-03-29T22:47:12;11.70;99.90
3156;DHT22;1588;50.892;7.082;2023-03-29T22:52:16;11.80;99.90
3156;DHT22;1588;50.892;7.082;2023-03-29T22:57:26;11.90;99.90
3156;DHT22;1588;50.892;7.082;2023-03-29T23:02:30;12.00;99.90
3156;DHT22;1588;50.892;7.082;2023-03-29T23:07:32;12.10;99.90
3156;DHT22;1588;50.892;7.082;2023-03-29T23:12:38;12.20;99.90
3156;DHT22;1588;50.892;7.082;2023-03-29T23:17:42;12.30;99.90
3156;DHT22;1588;50.892;7.082;2023-03-29T23:22:45;12.10;99.90
3156;DHT22;1588;50.892;7.082;2023-03-29T23:27:49;12.10;99.90
3156;DHT22;1588;50.892;7.082;2023-03-29T23:32:53;12.30;99.90
3156;DHT22;1588;50.892;7.082;2023-03-29T23:37:58;12.60;99.90
3156;DHT22;1588;50.892;7.082;2023-03-29T23:43:02;12.60;99.90
3156;DHT22;1588;50.892;7.082;2023-03-29T23:48:05;12.50;99.90
3156;DHT22;1588;50.892;7.082;2023-03-29T23:53:10;12.50;99.90
3156;DHT22;1588;50.892;7.082;2023-03-29T23:58:14;12.50;99.90
